Terminal Aerodrome Forecast
Issued by NWS

Home | Current Version | Previous Version | Graphics & Text | Print | Product List | Glossary On
Versions: 1 2 3 4 5 6 7 8 9 10 11 12 13 14 15 16
936
FTUS43 KIWX 290538
TAFSBN
TAF
KSBN 290538Z 2906/3006 19008KT P6SM SCT040 BKN080
     FM291600 22012G20KT P6SM SCT040 BKN250
     FM300200 25004KT P6SM SCT250=

USA.gov is the U.S. government's official web portal to all federal, state and local government web resources and services.